Overview Statistics Trail Chart Weather Telemetry Raw packets
 

This is the latest recevied weather packets stored in our database for station/object OK1TBM-13. If no packets are shown the sender has not sent any weather packets the latest 10 day(s).

<< 47 48 49 50 51 52 53 >>
Time Temp. Humidity Pressure Rain* Wind** Luminosity Snow
1788226501 14.44° C 88% 1015.9 hPa 0 mm - 0 W/m² -
1788225911 14.44° C 89% 1015.9 hPa 0 mm - 0 W/m² -
1788225600 15° C 83% 1015.9 hPa 0 mm - 0 W/m² -
1788225301 15° C 85% 1015.9 hPa 0 mm - 0 W/m² -
1788225001 15.56° C 80% 1015.9 hPa 0 mm - 0 W/m² -
1788224702 15.56° C 79% 1015.9 hPa 0 mm - 0 W/m² -
1788224101 14.44° C 88% 1015.9 hPa 0 mm - 0 W/m² -
1788223801 14.44° C 89% 1015.9 hPa 0 mm - 0 W/m² -
1788223502 15° C 86% 1015.9 hPa 0 mm - 0 W/m² -
1788223202 14.44° C 91% 1015.9 hPa 0 mm - 0 W/m² -
1788222901 12.78° C 99% 1015.9 hPa 0 mm - 0 W/m² -
1788222602 12.22° C 99% 1015.9 hPa 0 mm - 0 W/m² -
1788222301 12.22° C 99% 1015.9 hPa 0 mm - 0 W/m² -
1788222001 12.78° C 99% 1015.9 hPa 0 mm - 0 W/m² -
1788221700 12.22° C 99% 1015.9 hPa 0 mm - 0 W/m² -
1788221400 12.22° C 99% 1015.9 hPa 0 mm - 0 W/m² -
1788221102 12.22° C 99% 1015.9 hPa 0 mm - 0 W/m² -
1788220802 12.22° C 99% 1015.9 hPa 0 mm - 0 W/m² -
1788220501 12.22° C 99% 1015.9 hPa 0 mm - 0 W/m² -
1788220201 12.22° C 99% 1015.9 hPa 0 mm - 0 W/m² -
1788219902 12.22° C 99% 1015.9 hPa 0 mm - 0 W/m² -
1788219606 12.22° C 99% 1015.9 hPa 0 mm - 0 W/m² -
1788219300 12.22° C 99% 1015.9 hPa 0 mm - 0 W/m² -
1788219000 12.78° C 99% 1015.9 hPa 0 mm - 0 W/m² -
1788218700 12.78° C 99% 1015.9 hPa 0 mm - 0 W/m² -

* Rain latest hour (hover to see other rain measurements)
** Current wind speed in m/s (hover to see current wind gust speed)